0TX1 – Local Weather Observations

Pecan Plantation

This weather station is operated by a private user located just north of the field. Data is gathered via OpenWeatherMap.org.

Last updated:
2024-02-26 06:27:57(12:27 am)

Temperature: 64.1 °F

Sunrise / Sunset: 7:00 am / 6:26 pm

Civil Dawn / Dusk: 6:35 am / 6:51 pm

Nearby METARs

KGDJ 260635Z AUTO 00000KT 10SM CLR 16/05 A2990 RMK AO2 T01610046

KCPT 260635Z AUTO 16007KT 10SM 17/14 A2991 RMK A01

KFWS 260635Z AUTO 19006KT 10SM CLR 18/13 A2990 RMK AO2 T01810128

KSEP 260635Z AUTO 00000KT 10SM CLR 19/01 A2995 RMK AO2 T01860010